Terminal Aerodrome Forecast
Issued by NWS Hastings, NE

Current Version | Previous Version | Text Only | Print | Product List | Glossary On
Versions: 1 2 3 4 5 6 7 8 9 10 11 12 13 14
195
FTUS45 KGID 290520
TAFEAR
TAF
KEAR 290520Z 2906/3006 01013KT P6SM OVC015
     FM291200 02016G24KT P6SM VCSH OVC040
     FM291500 02019G27KT P6SM -RA OVC030
     FM291800 02022G31KT 6SM RA OVC010
     FM292200 02023G32KT 3SM RA OVC008
     FM300000 02022G31KT 4SM RA OVC010
     FM300500 02017G24KT 4SM RASN OVC008
      AMD LTD TO CLD VIS AND WIND=

USA.gov is the U.S. government's official web portal to all federal, state and local government web resources and services.